sensor_id;sensor_type;location;lat;lon;timestamp;temperature;humidity
16313;DHT22;8265;52.622;13.296;2023-04-24T00:00:37;8.70;91.50
16313;DHT22;8265;52.622;13.296;2023-04-24T00:05:58;8.70;91.90
16313;DHT22;8265;52.622;13.296;2023-04-24T00:11:19;8.70;92.00
16313;DHT22;8265;52.622;13.296;2023-04-24T00:16:40;8.60;92.40
16313;DHT22;8265;52.622;13.296;2023-04-24T00:22:01;8.60;92.40
16313;DHT22;8265;52.622;13.296;2023-04-24T00:27:22;8.60;92.60
16313;DHT22;8265;52.622;13.296;2023-04-24T00:32:43;8.60;92.50
16313;DHT22;8265;52.622;13.296;2023-04-24T00:38:04;8.50;92.70
16313;DHT22;8265;52.622;13.296;2023-04-24T00:43:25;8.50;92.90
16313;DHT22;8265;52.622;13.296;2023-04-24T00:48:46;8.50;93.20
16313;DHT22;8265;52.622;13.296;2023-04-24T00:54:07;8.60;93.40
16313;DHT22;8265;52.622;13.296;2023-04-24T00:59:28;8.60;93.60
16313;DHT22;8265;52.622;13.296;2023-04-24T01:04:49;8.60;93.50
16313;DHT22;8265;52.622;13.296;2023-04-24T01:10:10;8.60;93.40
16313;DHT22;8265;52.622;13.296;2023-04-24T01:15:31;8.70;93.30
16313;DHT22;8265;52.622;13.296;2023-04-24T01:20:53;8.90;93.40
16313;DHT22;8265;52.622;13.296;2023-04-24T01:26:14;9.00;93.70
16313;DHT22;8265;52.622;13.296;2023-04-24T01:31:34;9.00;93.00
16313;DHT22;8265;52.622;13.296;2023-04-24T01:36:55;9.20;92.90
16313;DHT22;8265;52.622;13.296;2023-04-24T01:42:16;9.20;93.60
16313;DHT22;8265;52.622;13.296;2023-04-24T01:47:37;9.40;94.80
16313;DHT22;8265;52.622;13.296;2023-04-24T01:52:58;9.40;95.70
16313;DHT22;8265;52.622;13.296;2023-04-24T01:58:19;9.50;96.20
16313;DHT22;8265;52.622;13.296;2023-04-24T02:03:40;9.50;96.50
16313;DHT22;8265;52.622;13.296;2023-04-24T02:09:01;9.50;96.20
16313;DHT22;8265;52.622;13.296;2023-04-24T02:14:22;9.40;96.20
16313;DHT22;8265;52.622;13.296;2023-04-24T02:19:43;9.30;96.40
16313;DHT22;8265;52.622;13.296;2023-04-24T02:25:04;9.30;96.70
16313;DHT22;8265;52.622;13.296;2023-04-24T02:30:25;9.20;96.90
16313;DHT22;8265;52.622;13.296;2023-04-24T02:35:46;9.30;97.10
16313;DHT22;8265;52.622;13.296;2023-04-24T02:41:07;9.20;97.20
16313;DHT22;8265;52.622;13.296;2023-04-24T02:46:28;9.20;97.50
16313;DHT22;8265;52.622;13.296;2023-04-24T02:51:49;9.20;97.60
16313;DHT22;8265;52.622;13.296;2023-04-24T02:57:10;9.20;97.80
16313;DHT22;8265;52.622;13.296;2023-04-24T03:02:31;9.10;97.80
16313;DHT22;8265;52.622;13.296;2023-04-24T03:07:52;9.10;98.00
16313;DHT22;8265;52.622;13.296;2023-04-24T03:13:13;9.10;98.20
16313;DHT22;8265;52.622;13.296;2023-04-24T03:18:34;9.10;98.20
16313;DHT22;8265;52.622;13.296;2023-04-24T03:23:55;9.10;98.30
16313;DHT22;8265;52.622;13.296;2023-04-24T03:29:16;9.20;98.30
16313;DHT22;8265;52.622;13.296;2023-04-24T03:34:37;9.40;98.50
16313;DHT22;8265;52.622;13.296;2023-04-24T03:39:58;9.50;98.20
16313;DHT22;8265;52.622;13.296;2023-04-24T03:45:20;9.60;98.00
16313;DHT22;8265;52.622;13.296;2023-04-24T03:50:40;9.70;97.90
16313;DHT22;8265;52.622;13.296;2023-04-24T03:56:01;9.80;97.30
16313;DHT22;8265;52.622;13.296;2023-04-24T04:01:22;9.90;97.30
16313;DHT22;8265;52.622;13.296;2023-04-24T04:06:43;9.80;97.20
16313;DHT22;8265;52.622;13.296;2023-04-24T04:12:04;9.80;97.30
16313;DHT22;8265;52.622;13.296;2023-04-24T04:17:25;10.00;97.30
16313;DHT22;8265;52.622;13.296;2023-04-24T04:22:46;10.00;97.10
16313;DHT22;8265;52.622;13.296;2023-04-24T04:28:07;10.00;96.70
16313;DHT22;8265;52.622;13.296;2023-04-24T04:33:28;10.00;96.50
16313;DHT22;8265;52.622;13.296;2023-04-24T04:38:49;9.90;96.50
16313;DHT22;8265;52.622;13.296;2023-04-24T04:44:10;9.80;96.50
16313;DHT22;8265;52.622;13.296;2023-04-24T04:49:32;9.80;96.50
16313;DHT22;8265;52.622;13.296;2023-04-24T04:54:52;9.90;96.10
16313;DHT22;8265;52.622;13.296;2023-04-24T05:00:13;10.10;95.50
16313;DHT22;8265;52.622;13.296;2023-04-24T05:05:34;10.20;94.90
16313;DHT22;8265;52.622;13.296;2023-04-24T05:10:55;10.20;94.50
16313;DHT22;8265;52.622;13.296;2023-04-24T05:16:16;10.30;93.60
16313;DHT22;8265;52.622;13.296;2023-04-24T05:21:37;10.40;93.00
16313;DHT22;8265;52.622;13.296;2023-04-24T05:26:58;10.50;93.00
16313;DHT22;8265;52.622;13.296;2023-04-24T05:32:19;10.60;93.00
16313;DHT22;8265;52.622;13.296;2023-04-24T05:37:40;10.80;92.20
16313;DHT22;8265;52.622;13.296;2023-04-24T05:43:01;10.80;91.70
16313;DHT22;8265;52.622;13.296;2023-04-24T05:48:22;10.80;91.10
16313;DHT22;8265;52.622;13.296;2023-04-24T05:53:43;10.90;90.70
16313;DHT22;8265;52.622;13.296;2023-04-24T05:59:04;10.90;89.90
16313;DHT22;8265;52.622;13.296;2023-04-24T06:04:25;11.00;90.10
16313;DHT22;8265;52.622;13.296;2023-04-24T06:09:46;11.30;89.20
16313;DHT22;8265;52.622;13.296;2023-04-24T06:15:07;11.50;87.20
16313;DHT22;8265;52.622;13.296;2023-04-24T06:20:28;11.70;85.80
16313;DHT22;8265;52.622;13.296;2023-04-24T06:25:49;11.90;85.50
16313;DHT22;8265;52.622;13.296;2023-04-24T06:31:10;12.20;84.30
16313;DHT22;8265;52.622;13.296;2023-04-24T06:36:31;12.50;81.90
16313;DHT22;8265;52.622;13.296;2023-04-24T06:41:52;12.90;81.40
16313;DHT22;8265;52.622;13.296;2023-04-24T06:47:13;13.10;79.80
16313;DHT22;8265;52.622;13.296;2023-04-24T06:52:34;13.30;77.70
16313;DHT22;8265;52.622;13.296;2023-04-24T06:57:55;13.50;75.50
16313;DHT22;8265;52.622;13.296;2023-04-24T07:03:16;13.30;76.40
16313;DHT22;8265;52.622;13.296;2023-04-24T07:08:37;13.60;72.90
16313;DHT22;8265;52.622;13.296;2023-04-24T07:13:58;13.40;73.60
16313;DHT22;8265;52.622;13.296;2023-04-24T07:19:19;13.30;74.50
16313;DHT22;8265;52.622;13.296;2023-04-24T07:24:40;13.50;71.10
16313;DHT22;8265;52.622;13.296;2023-04-24T07:30:02;13.50;69.60
16313;DHT22;8265;52.622;13.296;2023-04-24T07:35:22;13.70;68.70
16313;DHT22;8265;52.622;13.296;2023-04-24T07:40:43;14.00;68.20
16313;DHT22;8265;52.622;13.296;2023-04-24T07:46:04;14.40;66.60
16313;DHT22;8265;52.622;13.296;2023-04-24T07:51:25;14.50;66.10
16313;DHT22;8265;52.622;13.296;2023-04-24T07:56:46;14.50;65.20
16313;DHT22;8265;52.622;13.296;2023-04-24T08:02:07;14.60;63.60
16313;DHT22;8265;52.622;13.296;2023-04-24T08:07:28;14.90;62.10
16313;DHT22;8265;52.622;13.296;2023-04-24T08:12:49;15.00;63.50
16313;DHT22;8265;52.622;13.296;2023-04-24T08:18:10;15.50;62.40
16313;DHT22;8265;52.622;13.296;2023-04-24T08:23:31;15.60;59.80
16313;DHT22;8265;52.622;13.296;2023-04-24T08:28:52;15.80;58.30
16313;DHT22;8265;52.622;13.296;2023-04-24T08:34:13;16.00;57.10
16313;DHT22;8265;52.622;13.296;2023-04-24T08:39:34;16.00;58.10
16313;DHT22;8265;52.622;13.296;2023-04-24T08:44:55;15.90;58.50
16313;DHT22;8265;52.622;13.296;2023-04-24T08:50:16;16.00;59.80
16313;DHT22;8265;52.622;13.296;2023-04-24T08:55:37;16.20;59.00
16313;DHT22;8265;52.622;13.296;2023-04-24T09:00:58;16.70;58.20
16313;DHT22;8265;52.622;13.296;2023-04-24T09:06:19;16.90;56.60
16313;DHT22;8265;52.622;13.296;2023-04-24T09:11:40;17.00;56.90
16313;DHT22;8265;52.622;13.296;2023-04-24T09:17:01;16.90;58.40
16313;DHT22;8265;52.622;13.296;2023-04-24T09:22:22;16.70;58.20
16313;DHT22;8265;52.622;13.296;2023-04-24T09:27:43;16.60;58.10
16313;DHT22;8265;52.622;13.296;2023-04-24T09:33:13;16.90;57.50
16313;DHT22;8265;52.622;13.296;2023-04-24T09:38:35;17.00;56.30
16313;DHT22;8265;52.622;13.296;2023-04-24T09:43:46;16.90;57.30
16313;DHT22;8265;52.622;13.296;2023-04-24T09:49:08;17.30;56.20
16313;DHT22;8265;52.622;13.296;2023-04-24T09:54:28;16.60;60.00
16313;DHT22;8265;52.622;13.296;2023-04-24T09:59:49;15.80;61.30
16313;DHT22;8265;52.622;13.296;2023-04-24T10:05:11;15.80;61.00
16313;DHT22;8265;52.622;13.296;2023-04-24T10:10:32;16.20;60.50
16313;DHT22;8265;52.622;13.296;2023-04-24T10:15:52;16.50;60.80
16313;DHT22;8265;52.622;13.296;2023-04-24T10:21:14;16.30;61.50
16313;DHT22;8265;52.622;13.296;2023-04-24T10:26:34;16.00;62.50
16313;DHT22;8265;52.622;13.296;2023-04-24T10:31:55;16.40;62.00
16313;DHT22;8265;52.622;13.296;2023-04-24T10:37:16;16.90;60.00
16313;DHT22;8265;52.622;13.296;2023-04-24T10:42:40;16.70;58.50
16313;DHT22;8265;52.622;13.296;2023-04-24T10:48:02;16.10;60.30
16313;DHT22;8265;52.622;13.296;2023-04-24T10:53:22;15.50;62.20
16313;DHT22;8265;52.622;13.296;2023-04-24T10:58:41;15.60;63.00
16313;DHT22;8265;52.622;13.296;2023-04-24T11:04:02;16.30;61.20
16313;DHT22;8265;52.622;13.296;2023-04-24T11:09:22;16.90;59.60
16313;DHT22;8265;52.622;13.296;2023-04-24T11:20:08;17.40;56.80
16313;DHT22;8265;52.622;13.296;2023-04-24T11:25:25;17.00;58.00
16313;DHT22;8265;52.622;13.296;2023-04-24T11:30:46;16.70;61.20
16313;DHT22;8265;52.622;13.296;2023-04-24T11:36:07;17.00;59.60
16313;DHT22;8265;52.622;13.296;2023-04-24T11:41:28;17.40;57.20
16313;DHT22;8265;52.622;13.296;2023-04-24T11:46:49;17.00;56.70
16313;DHT22;8265;52.622;13.296;2023-04-24T11:52:10;17.00;61.20
16313;DHT22;8265;52.622;13.296;2023-04-24T11:57:31;17.60;57.70
16313;DHT22;8265;52.622;13.296;2023-04-24T12:02:52;18.20;56.00
16313;DHT22;8265;52.622;13.296;2023-04-24T12:08:26;18.40;55.70
16313;DHT22;8265;52.622;13.296;2023-04-24T12:13:34;18.40;55.10
16313;DHT22;8265;52.622;13.296;2023-04-24T12:18:55;17.60;55.80
16313;DHT22;8265;52.622;13.296;2023-04-24T12:24:16;17.00;58.10
16313;DHT22;8265;52.622;13.296;2023-04-24T12:29:37;16.30;61.20
16313;DHT22;8265;52.622;13.296;2023-04-24T12:34:58;16.00;62.30
16313;DHT22;8265;52.622;13.296;2023-04-24T12:40:20;16.10;61.20
16313;DHT22;8265;52.622;13.296;2023-04-24T12:45:40;16.00;61.90
16313;DHT22;8265;52.622;13.296;2023-04-24T12:51:01;16.00;54.70
16313;DHT22;8265;52.622;13.296;2023-04-24T12:56:22;16.40;53.00
16313;DHT22;8265;52.622;13.296;2023-04-24T13:01:43;16.20;54.30
16313;DHT22;8265;52.622;13.296;2023-04-24T13:07:05;16.50;54.70
16313;DHT22;8265;52.622;13.296;2023-04-24T13:12:25;16.90;54.40
16313;DHT22;8265;52.622;13.296;2023-04-24T13:17:46;17.00;54.10
16313;DHT22;8265;52.622;13.296;2023-04-24T13:23:07;16.50;55.70
16313;DHT22;8265;52.622;13.296;2023-04-24T13:28:28;16.50;57.70
16313;DHT22;8265;52.622;13.296;2023-04-24T13:33:49;16.40;59.20
16313;DHT22;8265;52.622;13.296;2023-04-24T13:39:10;17.10;58.10
16313;DHT22;8265;52.622;13.296;2023-04-24T13:44:31;18.60;54.80
16313;DHT22;8265;52.622;13.296;2023-04-24T13:49:52;19.00;51.60
16313;DHT22;8265;52.622;13.296;2023-04-24T13:55:13;20.10;50.30
16313;DHT22;8265;52.622;13.296;2023-04-24T14:00:34;20.50;46.50
16313;DHT22;8265;52.622;13.296;2023-04-24T14:05:55;18.60;48.50
16313;DHT22;8265;52.622;13.296;2023-04-24T14:11:16;17.30;49.30
16313;DHT22;8265;52.622;13.296;2023-04-24T14:16:37;17.20;50.50
16313;DHT22;8265;52.622;13.296;2023-04-24T14:21:59;17.30;48.40
16313;DHT22;8265;52.622;13.296;2023-04-24T14:27:19;16.90;48.00
16313;DHT22;8265;52.622;13.296;2023-04-24T14:32:40;18.00;46.90
16313;DHT22;8265;52.622;13.296;2023-04-24T14:38:01;18.90;43.70
16313;DHT22;8265;52.622;13.296;2023-04-24T14:43:22;20.00;41.70
16313;DHT22;8265;52.622;13.296;2023-04-24T14:48:43;21.10;38.00
16313;DHT22;8265;52.622;13.296;2023-04-24T14:54:04;20.60;38.20
16313;DHT22;8265;52.622;13.296;2023-04-24T14:59:25;20.90;39.30
16313;DHT22;8265;52.622;13.296;2023-04-24T15:04:46;20.20;39.60
16313;DHT22;8265;52.622;13.296;2023-04-24T15:10:08;18.90;40.10
16313;DHT22;8265;52.622;13.296;2023-04-24T15:15:28;18.00;42.60
16313;DHT22;8265;52.622;13.296;2023-04-24T15:20:49;17.80;44.60
16313;DHT22;8265;52.622;13.296;2023-04-24T15:26:10;18.20;41.60
16313;DHT22;8265;52.622;13.296;2023-04-24T15:31:31;17.10;43.60
16313;DHT22;8265;52.622;13.296;2023-04-24T15:36:52;16.50;44.60
16313;DHT22;8265;52.622;13.296;2023-04-24T15:42:13;15.80;45.10
16313;DHT22;8265;52.622;13.296;2023-04-24T15:47:34;15.70;45.40
16313;DHT22;8265;52.622;13.296;2023-04-24T15:52:55;15.60;46.50
16313;DHT22;8265;52.622;13.296;2023-04-24T15:58:16;16.60;44.80
16313;DHT22;8265;52.622;13.296;2023-04-24T16:03:37;17.30;43.40
16313;DHT22;8265;52.622;13.296;2023-04-24T16:08:58;18.00;42.30
16313;DHT22;8265;52.622;13.296;2023-04-24T16:14:19;17.20;42.80
16313;DHT22;8265;52.622;13.296;2023-04-24T16:19:40;16.50;44.00
16313;DHT22;8265;52.622;13.296;2023-04-24T16:25:01;16.30;44.70
16313;DHT22;8265;52.622;13.296;2023-04-24T16:30:22;16.00;44.70
16313;DHT22;8265;52.622;13.296;2023-04-24T16:35:43;15.70;46.10
16313;DHT22;8265;52.622;13.296;2023-04-24T16:41:04;15.00;49.60
16313;DHT22;8265;52.622;13.296;2023-04-24T16:46:25;14.10;53.20
16313;DHT22;8265;52.622;13.296;2023-04-24T16:51:46;13.70;55.10
16313;DHT22;8265;52.622;13.296;2023-04-24T16:57:07;13.40;56.20
16313;DHT22;8265;52.622;13.296;2023-04-24T17:02:28;13.20;57.20
16313;DHT22;8265;52.622;13.296;2023-04-24T17:07:49;12.90;58.60
16313;DHT22;8265;52.622;13.296;2023-04-24T17:13:10;12.80;59.50
16313;DHT22;8265;52.622;13.296;2023-04-24T17:18:31;12.70;60.30
16313;DHT22;8265;52.622;13.296;2023-04-24T17:23:52;12.60;60.80
16313;DHT22;8265;52.622;13.296;2023-04-24T17:29:13;12.50;60.80
16313;DHT22;8265;52.622;13.296;2023-04-24T17:34:34;12.50;61.80
16313;DHT22;8265;52.622;13.296;2023-04-24T17:39:55;11.90;67.90
16313;DHT22;8265;52.622;13.296;2023-04-24T17:45:16;11.10;69.50
16313;DHT22;8265;52.622;13.296;2023-04-24T17:50:37;10.90;71.40
16313;DHT22;8265;52.622;13.296;2023-04-24T17:55:59;11.00;69.00
16313;DHT22;8265;52.622;13.296;2023-04-24T18:01:19;11.30;66.60
16313;DHT22;8265;52.622;13.296;2023-04-24T18:06:40;11.40;65.40
16313;DHT22;8265;52.622;13.296;2023-04-24T18:12:01;11.40;65.90
16313;DHT22;8265;52.622;13.296;2023-04-24T18:17:22;11.40;63.50
16313;DHT22;8265;52.622;13.296;2023-04-24T18:22:43;11.10;63.70
16313;DHT22;8265;52.622;13.296;2023-04-24T18:28:04;10.90;62.90
16313;DHT22;8265;52.622;13.296;2023-04-24T18:33:25;10.70;62.70
16313;DHT22;8265;52.622;13.296;2023-04-24T18:38:46;10.50;63.50
16313;DHT22;8265;52.622;13.296;2023-04-24T18:44:07;10.40;63.50
16313;DHT22;8265;52.622;13.296;2023-04-24T18:49:28;10.10;62.90
16313;DHT22;8265;52.622;13.296;2023-04-24T18:54:49;9.80;64.20
16313;DHT22;8265;52.622;13.296;2023-04-24T19:00:10;9.60;65.00
16313;DHT22;8265;52.622;13.296;2023-04-24T19:05:31;9.50;65.40
16313;DHT22;8265;52.622;13.296;2023-04-24T19:10:52;9.40;66.20
16313;DHT22;8265;52.622;13.296;2023-04-24T19:16:13;9.20;67.10
16313;DHT22;8265;52.622;13.296;2023-04-24T19:21:34;9.20;67.00
16313;DHT22;8265;52.622;13.296;2023-04-24T19:26:55;9.30;67.00
16313;DHT22;8265;52.622;13.296;2023-04-24T19:32:16;9.20;67.30
16313;DHT22;8265;52.622;13.296;2023-04-24T19:37:37;9.20;67.70
16313;DHT22;8265;52.622;13.296;2023-04-24T19:42:58;9.00;68.20
16313;DHT22;8265;52.622;13.296;2023-04-24T19:48:19;8.90;68.70
16313;DHT22;8265;52.622;13.296;2023-04-24T19:53:40;8.90;68.70
16313;DHT22;8265;52.622;13.296;2023-04-24T19:59:01;9.00;68.40
16313;DHT22;8265;52.622;13.296;2023-04-24T20:04:25;9.20;67.60
16313;DHT22;8265;52.622;13.296;2023-04-24T20:09:43;9.00;68.20
16313;DHT22;8265;52.622;13.296;2023-04-24T20:15:04;9.00;68.10
16313;DHT22;8265;52.622;13.296;2023-04-24T20:20:25;8.60;69.50
16313;DHT22;8265;52.622;13.296;2023-04-24T20:25:46;8.60;70.00
16313;DHT22;8265;52.622;13.296;2023-04-24T20:31:07;8.40;70.30
16313;DHT22;8265;52.622;13.296;2023-04-24T20:36:28;8.30;71.10
16313;DHT22;8265;52.622;13.296;2023-04-24T20:41:49;8.30;71.30
16313;DHT22;8265;52.622;13.296;2023-04-24T20:47:10;8.50;71.00
16313;DHT22;8265;52.622;13.296;2023-04-24T20:52:31;8.70;70.70
16313;DHT22;8265;52.622;13.296;2023-04-24T20:57:52;8.60;70.40
16313;DHT22;8265;52.622;13.296;2023-04-24T21:03:13;8.60;71.00
16313;DHT22;8265;52.622;13.296;2023-04-24T21:08:34;8.50;71.60
16313;DHT22;8265;52.622;13.296;2023-04-24T21:13:55;8.50;71.80
16313;DHT22;8265;52.622;13.296;2023-04-24T21:19:16;8.50;72.10
16313;DHT22;8265;52.622;13.296;2023-04-24T21:24:37;8.40;72.60
16313;DHT22;8265;52.622;13.296;2023-04-24T21:29:58;8.50;72.50
16313;DHT22;8265;52.622;13.296;2023-04-24T21:35:19;8.50;72.60
16313;DHT22;8265;52.622;13.296;2023-04-24T21:40:40;8.40;73.30
16313;DHT22;8265;52.622;13.296;2023-04-24T21:46:01;8.30;73.70
16313;DHT22;8265;52.622;13.296;2023-04-24T21:51:22;8.50;73.60
16313;DHT22;8265;52.622;13.296;2023-04-24T21:56:43;8.50;73.30
16313;DHT22;8265;52.622;13.296;2023-04-24T22:02:04;8.60;73.20
16313;DHT22;8265;52.622;13.296;2023-04-24T22:07:25;8.50;73.80
16313;DHT22;8265;52.622;13.296;2023-04-24T22:12:46;8.40;75.00
16313;DHT22;8265;52.622;13.296;2023-04-24T22:18:07;8.40;75.00
16313;DHT22;8265;52.622;13.296;2023-04-24T22:23:28;8.50;75.20
16313;DHT22;8265;52.622;13.296;2023-04-24T22:28:49;8.50;75.40
16313;DHT22;8265;52.622;13.296;2023-04-24T22:34:10;8.50;75.10
16313;DHT22;8265;52.622;13.296;2023-04-24T22:39:31;8.40;74.90
16313;DHT22;8265;52.622;13.296;2023-04-24T22:44:52;8.20;75.70
16313;DHT22;8265;52.622;13.296;2023-04-24T22:50:13;8.20;75.80
16313;DHT22;8265;52.622;13.296;2023-04-24T22:55:34;8.10;75.50
16313;DHT22;8265;52.622;13.296;2023-04-24T23:00:55;8.00;75.50
16313;DHT22;8265;52.622;13.296;2023-04-24T23:06:16;7.80;76.50
16313;DHT22;8265;52.622;13.296;2023-04-24T23:11:37;8.00;75.60
16313;DHT22;8265;52.622;13.296;2023-04-24T23:16:58;8.00;75.60
16313;DHT22;8265;52.622;13.296;2023-04-24T23:22:19;8.30;75.20
16313;DHT22;8265;52.622;13.296;2023-04-24T23:27:40;8.30;75.00
16313;DHT22;8265;52.622;13.296;2023-04-24T23:33:00;8.20;75.50
16313;DHT22;8265;52.622;13.296;2023-04-24T23:38:21;8.30;74.70
16313;DHT22;8265;52.622;13.296;2023-04-24T23:43:43;8.10;75.20
16313;DHT22;8265;52.622;13.296;2023-04-24T23:49:04;8.10;74.80
16313;DHT22;8265;52.622;13.296;2023-04-24T23:54:25;8.00;74.30
16313;DHT22;8265;52.622;13.296;2023-04-24T23:59:46;8.00;74.30
